createdAt,value
2022-10-13T00:00:07.461Z,26.90
2022-10-13T00:02:20.570Z,25.80
2022-10-13T00:04:32.590Z,27.23
2022-10-13T00:06:41.106Z,26.75
2022-10-13T00:08:49.741Z,25.42
2022-10-13T00:10:58.265Z,24.27
2022-10-13T00:13:10.914Z,26.60
2022-10-13T00:15:19.434Z,25.90
2022-10-13T00:17:27.913Z,25.50
2022-10-13T00:19:39.767Z,23.48
2022-10-13T00:21:49.268Z,24.27
2022-10-13T00:23:58.632Z,23.50
2022-10-13T00:26:09.095Z,22.13
2022-10-13T00:28:19.437Z,23.60
2022-10-13T00:30:27.513Z,21.23
2022-10-13T00:32:35.956Z,21.77
2022-10-13T00:34:49.859Z,22.88
2022-10-13T00:36:59.234Z,22.30
2022-10-13T00:39:08.454Z,22.65
2022-10-13T00:41:16.824Z,20.67
2022-10-13T00:43:28.451Z,22.15
2022-10-13T00:45:36.578Z,23.25
2022-10-13T00:47:49.143Z,22.58
2022-10-13T00:50:01.271Z,22.83
2022-10-13T00:52:09.508Z,21.23
2022-10-13T00:54:21.068Z,20.83
2022-10-13T00:56:30.795Z,23.17
2022-10-13T00:58:42.005Z,23.85
2022-10-13T01:00:53.314Z,22.27
2022-10-13T01:03:01.450Z,23.35
2022-10-13T01:05:12.738Z,20.35
2022-10-13T01:07:23.010Z,22.95
2022-10-13T01:09:37.693Z,22.30
2022-10-13T01:12:00.596Z,21.77
2022-10-13T01:14:17.067Z,23.35
2022-10-13T01:16:36.354Z,24.02
2022-10-13T01:18:51.590Z,24.27
2022-10-13T01:21:23.927Z,22.80
2022-10-13T01:24:07.940Z,21.27
2022-10-13T01:26:40.926Z,21.75
2022-10-13T01:29:13.808Z,23.02
2022-10-13T01:31:36.561Z,24.30
2022-10-13T01:33:53.160Z,23.85
2022-10-13T01:36:15.218Z,24.50
2022-10-13T01:38:32.339Z,23.60
2022-10-13T01:40:46.526Z,24.52
2022-10-13T01:43:02.152Z,24.40
2022-10-13T01:45:14.335Z,24.25
2022-10-13T01:47:26.845Z,23.95
2022-10-13T01:49:38.014Z,25.75
2022-10-13T01:51:47.530Z,26.65
2022-10-13T01:53:59.237Z,26.08
2022-10-13T01:56:07.681Z,24.63
2022-10-13T01:58:16.056Z,24.80
2022-10-13T02:00:26.241Z,26.52
2022-10-13T02:02:42.811Z,25.73
2022-10-13T02:04:59.868Z,25.52
2022-10-13T02:07:16.342Z,23.45
2022-10-13T02:09:31.033Z,24.15
2022-10-13T02:11:39.110Z,24.85
2022-10-13T02:13:50.778Z,23.75
2022-10-13T02:16:04.940Z,23.55
2022-10-13T02:18:18.237Z,23.83
2022-10-13T02:20:27.053Z,24.77
2022-10-13T02:22:42.271Z,25.77
2022-10-13T02:24:50.939Z,22.70
2022-10-13T02:27:00.701Z,23.27
2022-10-13T02:29:13.291Z,23.55
2022-10-13T02:31:21.430Z,22.80
2022-10-13T02:33:32.569Z,23.13
2022-10-13T02:35:41.497Z,22.50
2022-10-13T02:37:49.595Z,21.20
2022-10-13T02:39:58.318Z,20.40
2022-10-13T02:42:06.517Z,22.13
2022-10-13T02:44:14.587Z,21.67
2022-10-13T02:46:22.867Z,22.95
2022-10-13T02:48:33.680Z,22.33
2022-10-13T02:50:41.920Z,22.52
2022-10-13T02:52:50.353Z,22.27
2022-10-13T02:54:59.646Z,22.40
2022-10-13T02:57:07.994Z,21.13
2022-10-13T02:59:16.503Z,21.92
2022-10-13T03:01:25.209Z,20.70
2022-10-13T03:03:35.848Z,21.50
2022-10-13T03:05:44.271Z,20.25
2022-10-13T03:07:52.560Z,20.40
2022-10-13T03:10:01.620Z,20.73
2022-10-13T03:12:10.564Z,22.60
2022-10-13T03:14:18.667Z,22.45
2022-10-13T03:16:26.877Z,23.60
2022-10-13T03:18:38.944Z,22.73
2022-10-13T03:20:46.897Z,21.20
2022-10-13T03:22:56.251Z,21.88
2022-10-13T03:25:04.826Z,22.60
2022-10-13T03:27:14.468Z,22.35
2022-10-13T03:29:22.676Z,22.17
2022-10-13T03:31:31.954Z,21.42
2022-10-13T03:33:52.276Z,22.67
2022-10-13T03:36:02.579Z,21.65
2022-10-13T03:38:11.642Z,21.40
2022-10-13T03:40:21.467Z,22.20
2022-10-13T03:42:29.951Z,21.20
2022-10-13T03:44:38.374Z,21.48
2022-10-13T03:46:46.631Z,21.50
2022-10-13T03:48:58.273Z,20.75
2022-10-13T03:51:08.603Z,20.15
2022-10-13T03:53:16.619Z,22.00
2022-10-13T03:55:27.083Z,20.77
2022-10-13T03:57:35.281Z,21.38
2022-10-13T03:59:44.102Z,22.95
2022-10-13T04:01:52.184Z,23.30
2022-10-13T04:04:05.776Z,22.40
2022-10-13T04:06:14.299Z,21.95
2022-10-13T04:08:30.119Z,22.38
2022-10-13T04:10:40.238Z,21.30
2022-10-13T04:12:48.610Z,22.17
2022-10-13T04:14:56.901Z,21.67
2022-10-13T04:17:05.243Z,21.38
2022-10-13T04:19:18.041Z,22.58
2022-10-13T04:21:27.305Z,20.70
2022-10-13T04:23:35.551Z,22.10
2022-10-13T04:25:43.854Z,21.73
2022-10-13T04:27:54.427Z,20.58
2022-10-13T04:30:03.007Z,20.48
2022-10-13T04:32:12.187Z,19.70
2022-10-13T04:34:25.159Z,19.55
2022-10-13T04:36:35.755Z,20.70
2022-10-13T04:38:47.657Z,20.58
2022-10-13T04:40:55.977Z,19.88
2022-10-13T04:43:09.620Z,21.27
2022-10-13T04:45:18.184Z,20.20
2022-10-13T04:47:36.127Z,20.67
2022-10-13T04:49:47.698Z,19.30
2022-10-13T04:51:56.348Z,20.95
2022-10-13T04:54:05.792Z,22.00
2022-10-13T04:56:18.747Z,20.40
2022-10-13T04:58:27.025Z,20.70
2022-10-13T05:00:36.528Z,22.38
2022-10-13T05:02:46.659Z,22.38
2022-10-13T05:04:57.326Z,21.75
2022-10-13T05:07:16.931Z,23.55
2022-10-13T05:09:26.270Z,24.05
2022-10-13T05:11:39.095Z,22.95
2022-10-13T05:13:47.397Z,23.63
2022-10-13T05:15:55.779Z,22.45
2022-10-13T05:18:04.540Z,23.58
2022-10-13T05:20:17.851Z,22.10
2022-10-13T05:22:27.441Z,21.98
2022-10-13T05:24:41.224Z,22.60
2022-10-13T05:26:50.989Z,21.95
2022-10-13T05:28:59.637Z,22.05
2022-10-13T05:31:15.877Z,21.80
2022-10-13T05:33:24.269Z,22.25
2022-10-13T05:35:36.083Z,23.10
2022-10-13T05:37:44.872Z,23.30
2022-10-13T05:39:54.082Z,22.60
2022-10-13T05:42:03.386Z,22.02
2022-10-13T05:44:13.989Z,19.90
2022-10-13T05:46:35.205Z,20.50
2022-10-13T05:48:43.812Z,22.02
2022-10-13T05:50:55.353Z,21.90
2022-10-13T05:53:03.894Z,20.85
2022-10-13T05:55:15.173Z,21.65
2022-10-13T05:57:27.403Z,21.88
2022-10-13T05:59:42.367Z,21.52
2022-10-13T06:01:52.959Z,21.45
2022-10-13T06:04:04.836Z,21.52
2022-10-13T06:06:15.907Z,21.20
2022-10-13T06:08:26.153Z,21.27
2022-10-13T06:10:34.465Z,20.35
2022-10-13T06:12:42.983Z,21.58
2022-10-13T06:14:51.339Z,22.60
2022-10-13T06:16:59.916Z,22.52
2022-10-13T06:19:08.833Z,22.65
2022-10-13T06:21:22.341Z,22.83
2022-10-13T06:23:30.509Z,25.00
2022-10-13T06:25:39.706Z,22.30
2022-10-13T06:27:47.863Z,22.50
2022-10-13T06:29:56.389Z,22.38
2022-10-13T06:32:05.044Z,21.85
2022-10-13T06:34:12.994Z,21.80
2022-10-13T06:36:29.907Z,23.63
2022-10-13T06:38:43.137Z,22.55
2022-10-13T06:40:51.692Z,22.63
2022-10-13T06:43:02.386Z,22.67
2022-10-13T06:45:12.845Z,24.02
2022-10-13T06:47:21.457Z,21.40
2022-10-13T06:49:29.792Z,22.15
2022-10-13T06:51:40.733Z,19.85
2022-10-13T06:53:49.225Z,23.02
2022-10-13T06:56:04.175Z,23.08
2022-10-13T06:58:12.718Z,22.65
2022-10-13T07:00:21.508Z,22.73
2022-10-13T07:02:30.821Z,21.88
2022-10-13T07:04:38.871Z,22.45
2022-10-13T07:06:51.173Z,21.08
2022-10-13T07:08:59.825Z,21.52
2022-10-13T07:11:15.898Z,20.65
2022-10-13T07:13:30.455Z,22.08
2022-10-13T07:15:41.648Z,21.02
2022-10-13T07:17:49.852Z,22.33
2022-10-13T07:19:58.354Z,22.25
2022-10-13T07:22:15.481Z,23.10
2022-10-13T07:24:23.927Z,22.42
2022-10-13T07:26:32.671Z,22.10
2022-10-13T07:28:41.802Z,19.88
2022-10-13T07:30:50.250Z,21.65
2022-10-13T07:32:58.386Z,19.98
2022-10-13T07:35:07.392Z,20.80
2022-10-13T07:37:19.330Z,21.85
2022-10-13T07:39:28.607Z,22.17
2022-10-13T07:41:37.063Z,20.85
2022-10-13T07:43:45.213Z,20.80
2022-10-13T07:45:53.564Z,20.67
2022-10-13T07:48:02.339Z,19.63
2022-10-13T07:50:12.055Z,20.58
2022-10-13T07:52:23.354Z,18.83
2022-10-13T07:54:32.328Z,19.70
2022-10-13T07:56:41.198Z,19.55
2022-10-13T07:58:53.673Z,19.55
2022-10-13T08:01:04.087Z,18.33
2022-10-13T08:03:12.653Z,17.60
2022-10-13T08:05:22.852Z,19.00
2022-10-13T08:07:33.719Z,18.55
2022-10-13T08:09:41.808Z,16.33
2022-10-13T08:11:49.926Z,17.50
2022-10-13T08:14:01.144Z,17.33
2022-10-13T08:16:10.108Z,18.05
2022-10-13T08:18:18.407Z,17.60
2022-10-13T08:20:36.131Z,16.15
2022-10-13T08:22:52.441Z,17.38
2022-10-13T08:25:01.409Z,14.85
2022-10-13T08:27:14.885Z,16.77
2022-10-13T08:29:24.602Z,14.35
2022-10-13T08:31:33.316Z,13.63
2022-10-13T08:33:41.807Z,13.85
2022-10-13T08:35:50.918Z,13.45
2022-10-13T08:38:03.587Z,13.30
2022-10-13T08:40:17.623Z,13.45
2022-10-13T08:42:26.150Z,13.40
2022-10-13T08:45:10.756Z,12.77
2022-10-13T08:47:15.495Z,12.30
2022-10-13T08:49:23.553Z,11.57
2022-10-13T08:51:32.838Z,13.00
2022-10-13T08:53:47.096Z,13.98
2022-10-13T08:55:59.307Z,12.52
2022-10-13T08:58:16.637Z,13.30
2022-10-13T09:00:25.099Z,12.90
2022-10-13T09:02:34.333Z,12.95
2022-10-13T09:04:46.719Z,12.65
2022-10-13T09:06:57.925Z,11.40
2022-10-13T09:09:10.949Z,12.02
2022-10-13T09:11:19.583Z,11.93
2022-10-13T09:13:29.046Z,11.32
2022-10-13T09:15:46.591Z,11.57
2022-10-13T09:18:12.658Z,12.60
2022-10-13T09:20:24.663Z,11.48
2022-10-13T09:22:35.477Z,12.32
2022-10-13T09:24:46.360Z,11.32
2022-10-13T09:27:08.640Z,11.75
2022-10-13T09:29:24.643Z,10.15
2022-10-13T09:31:34.032Z,10.63
2022-10-13T09:33:42.175Z,10.15
2022-10-13T09:35:52.916Z,11.30
2022-10-13T09:38:07.438Z,11.50
2022-10-13T09:40:24.351Z,11.10
2022-10-13T09:42:34.162Z,10.50
2022-10-13T09:44:42.816Z,10.65
2022-10-13T09:46:55.092Z,9.65
2022-10-13T09:49:08.829Z,11.50
2022-10-13T09:51:34.395Z,13.13
2022-10-13T09:53:52.084Z,11.32
2022-10-13T09:56:22.781Z,10.93
2022-10-13T09:58:33.958Z,11.10
2022-10-13T10:00:43.073Z,10.57
2022-10-13T10:02:58.309Z,10.93
2022-10-13T10:05:17.099Z,10.80
2022-10-13T10:07:33.491Z,11.75
2022-10-13T10:09:47.505Z,11.20
2022-10-13T10:12:02.177Z,10.65
2022-10-13T10:14:23.489Z,11.57
2022-10-13T10:16:36.450Z,11.35
2022-10-13T10:18:52.789Z,10.68
2022-10-13T10:21:14.602Z,11.00
2022-10-13T10:23:33.430Z,9.82
2022-10-13T10:25:45.686Z,10.02
2022-10-13T10:28:18.419Z,10.05
2022-10-13T10:30:26.551Z,9.27
2022-10-13T10:32:45.565Z,9.15
2022-10-13T10:34:57.936Z,8.93
2022-10-13T10:37:25.121Z,9.73
2022-10-13T10:39:39.896Z,8.32
2022-10-13T10:41:54.511Z,9.50
2022-10-13T10:44:12.007Z,8.77
2022-10-13T10:46:24.790Z,9.00
2022-10-13T10:48:38.226Z,8.52
2022-10-13T10:50:46.461Z,9.40
2022-10-13T10:53:01.459Z,8.38
2022-10-13T10:55:20.508Z,9.30
2022-10-13T10:57:37.022Z,9.13
2022-10-13T10:59:58.273Z,8.45
2022-10-13T11:02:22.257Z,8.50
2022-10-13T11:04:40.320Z,7.60
2022-10-13T11:06:48.235Z,8.30
2022-10-13T11:08:58.461Z,8.32
2022-10-13T11:11:38.440Z,7.97
2022-10-13T11:13:57.777Z,8.52
2022-10-13T11:16:28.679Z,8.73
2022-10-13T11:19:06.085Z,7.68
2022-10-13T11:21:14.754Z,8.60
2022-10-13T11:23:35.763Z,8.90
2022-10-13T11:25:46.817Z,9.05
2022-10-13T11:27:55.415Z,8.40
2022-10-13T11:30:05.302Z,8.38
2022-10-13T11:32:55.723Z,7.97
2022-10-13T11:35:06.249Z,7.85
2022-10-13T11:37:19.884Z,7.68
2022-10-13T11:40:04.752Z,8.15
2022-10-13T11:42:35.309Z,8.40
2022-10-13T11:44:53.903Z,9.27
2022-10-13T11:47:11.167Z,8.25
2022-10-13T11:49:49.769Z,8.50
2022-10-13T11:52:15.150Z,9.07
2022-10-13T11:54:30.859Z,8.45
2022-10-13T11:56:48.680Z,8.50
2022-10-13T11:58:56.998Z,7.97
2022-10-13T12:01:10.352Z,6.97
2022-10-13T12:03:24.557Z,9.55
2022-10-13T12:05:36.311Z,8.40
2022-10-13T12:07:45.412Z,8.27
2022-10-13T12:09:57.505Z,8.68
2022-10-13T12:12:16.023Z,8.10
2022-10-13T12:14:27.227Z,7.70
2022-10-13T12:16:36.149Z,8.05
2022-10-13T12:18:45.246Z,7.50
2022-10-13T12:21:00.857Z,8.02
2022-10-13T12:23:20.939Z,9.15
2022-10-13T12:25:33.831Z,8.45
2022-10-13T12:27:49.012Z,8.35
2022-10-13T12:29:56.861Z,8.25
2022-10-13T12:32:06.515Z,8.20
2022-10-13T12:34:22.410Z,8.60
2022-10-13T12:36:36.581Z,8.48
2022-10-13T12:38:53.776Z,8.00
2022-10-13T12:41:01.845Z,7.13
2022-10-13T12:43:10.134Z,7.47
2022-10-13T12:45:20.809Z,7.55
2022-10-13T12:47:40.073Z,7.05
2022-10-13T12:49:48.075Z,8.13
2022-10-13T12:52:08.717Z,6.63
2022-10-13T12:54:26.267Z,7.75
2022-10-13T12:56:36.894Z,7.78
2022-10-13T12:58:46.485Z,8.85
2022-10-13T13:01:09.340Z,7.60
2022-10-13T13:03:26.330Z,7.40
2022-10-13T13:05:38.764Z,7.57
2022-10-13T13:07:56.042Z,9.43
2022-10-13T13:10:06.783Z,9.02
2022-10-13T13:12:30.785Z,8.60
2022-10-13T13:14:41.319Z,8.20
2022-10-13T13:17:06.003Z,7.90
2022-10-13T13:19:25.283Z,8.88
2022-10-13T13:21:33.732Z,8.23
2022-10-13T13:23:51.001Z,8.63
2022-10-13T13:26:16.327Z,9.25
2022-10-13T13:28:24.633Z,8.85
2022-10-13T13:30:33.106Z,9.38
2022-10-13T13:32:40.832Z,10.25
2022-10-13T13:34:49.024Z,10.40
2022-10-13T13:36:56.912Z,9.20
2022-10-13T13:39:09.791Z,9.48
2022-10-13T13:41:19.520Z,9.70
2022-10-13T13:43:27.307Z,9.52
2022-10-13T13:45:38.384Z,10.02
2022-10-13T13:47:48.601Z,9.82
2022-10-13T13:49:58.861Z,10.75
2022-10-13T13:52:07.505Z,10.60
2022-10-13T13:54:18.085Z,9.45
2022-10-13T13:56:25.835Z,10.02
2022-10-13T13:58:34.008Z,10.20
2022-10-13T14:00:42.068Z,9.68
2022-10-13T14:02:50.269Z,10.85
2022-10-13T14:04:58.483Z,9.90
2022-10-13T14:07:08.569Z,11.23
2022-10-13T14:09:19.483Z,10.65
2022-10-13T14:11:27.648Z,11.00
2022-10-13T14:13:36.766Z,10.68
2022-10-13T14:15:46.954Z,10.23
2022-10-13T14:17:57.541Z,10.40
2022-10-13T14:20:05.867Z,10.30
2022-10-13T14:22:18.469Z,11.15
2022-10-13T14:24:29.737Z,10.70
2022-10-13T14:26:37.836Z,10.45
2022-10-13T14:28:47.107Z,10.15
2022-10-13T14:30:55.645Z,10.38
2022-10-13T14:33:05.256Z,11.02
2022-10-13T14:35:13.468Z,10.30
2022-10-13T14:37:23.287Z,10.05
2022-10-13T14:39:35.250Z,10.68
2022-10-13T14:41:45.919Z,10.98
2022-10-13T14:43:56.836Z,10.98
2022-10-13T14:46:06.571Z,11.18
2022-10-13T14:48:15.390Z,10.75
2022-10-13T14:50:23.889Z,11.13
2022-10-13T14:52:37.795Z,9.70
2022-10-13T14:54:48.635Z,11.32
2022-10-13T14:56:56.893Z,10.52
2022-10-13T14:59:06.806Z,10.13
2022-10-13T15:01:18.137Z,11.45
2022-10-13T15:03:27.999Z,10.43
2022-10-13T15:05:36.552Z,10.52
2022-10-13T15:07:45.115Z,11.73
2022-10-13T15:10:11.738Z,11.60
2022-10-13T15:12:20.212Z,10.98
2022-10-13T15:14:28.627Z,11.23
2022-10-13T15:16:38.150Z,9.57
2022-10-13T15:18:46.570Z,10.90
2022-10-13T15:20:55.918Z,9.20
2022-10-13T15:23:04.427Z,10.10
2022-10-13T15:25:15.395Z,9.27
2022-10-13T15:27:23.645Z,9.07
2022-10-13T15:29:31.951Z,10.77
2022-10-13T15:31:40.367Z,10.80
2022-10-13T15:33:51.874Z,11.25
2022-10-13T15:36:02.586Z,10.30
2022-10-13T15:38:11.197Z,9.88
2022-10-13T15:40:22.012Z,8.55
2022-10-13T15:42:30.423Z,9.52
2022-10-13T15:45:04.548Z,9.25
2022-10-13T15:47:09.390Z,8.63
2022-10-13T15:49:18.726Z,7.90
2022-10-13T15:51:27.501Z,9.20
2022-10-13T15:53:35.713Z,8.82
2022-10-13T15:55:46.528Z,9.27
2022-10-13T15:57:55.079Z,9.88
2022-10-13T16:00:03.757Z,9.13
2022-10-13T16:02:20.429Z,9.70
2022-10-13T16:04:32.298Z,9.95
2022-10-13T16:06:43.299Z,9.63
2022-10-13T16:08:51.923Z,9.60
2022-10-13T16:11:02.876Z,10.43
2022-10-13T16:13:12.749Z,10.15
2022-10-13T16:15:21.749Z,10.27
2022-10-13T16:17:29.824Z,10.02
2022-10-13T16:19:38.542Z,9.95
2022-10-13T16:21:47.181Z,10.73
2022-10-13T16:23:56.998Z,10.23
2022-10-13T16:26:08.818Z,11.10
2022-10-13T16:28:17.579Z,10.57
2022-10-13T16:30:25.470Z,10.88
2022-10-13T16:32:35.683Z,11.45
2022-10-13T16:34:45.343Z,11.20
2022-10-13T16:36:57.096Z,10.55
2022-10-13T16:39:04.891Z,11.10
2022-10-13T16:41:17.802Z,10.40
2022-10-13T16:43:26.645Z,11.20
2022-10-13T16:45:55.278Z,10.93
2022-10-13T16:48:02.374Z,12.13
2022-10-13T16:50:12.359Z,13.32
2022-10-13T16:52:20.989Z,13.10
2022-10-13T16:54:29.280Z,13.20
2022-10-13T16:56:40.171Z,13.23
2022-10-13T16:58:47.873Z,13.07
2022-10-13T17:00:55.754Z,13.75
2022-10-13T17:03:04.000Z,14.63
2022-10-13T17:05:12.391Z,13.45
2022-10-13T17:07:20.667Z,14.52
2022-10-13T17:09:29.206Z,14.38
2022-10-13T17:11:42.857Z,14.82
2022-10-13T17:13:52.034Z,16.85
2022-10-13T17:16:00.759Z,15.23
2022-10-13T17:18:09.112Z,14.75
2022-10-13T17:20:16.952Z,13.80
2022-10-13T17:22:25.461Z,14.05
2022-10-13T17:24:35.560Z,14.25
2022-10-13T17:26:45.988Z,14.35
2022-10-13T17:28:54.250Z,14.60
2022-10-13T17:31:04.103Z,15.00
2022-10-13T17:33:12.740Z,14.25
2022-10-13T17:35:21.952Z,16.08
2022-10-13T17:37:29.791Z,15.80
2022-10-13T17:39:37.924Z,14.40
2022-10-13T17:41:48.659Z,16.00
2022-10-13T17:43:56.433Z,15.70
2022-10-13T17:46:36.368Z,15.68
2022-10-13T17:48:47.651Z,15.55
2022-10-13T17:50:57.219Z,16.00
2022-10-13T17:53:05.589Z,15.73
2022-10-13T17:55:13.795Z,16.35
2022-10-13T17:57:24.947Z,15.93
2022-10-13T17:59:38.746Z,17.58
2022-10-13T18:01:48.763Z,17.10
2022-10-13T18:03:59.252Z,17.13
2022-10-13T18:06:12.754Z,19.00
2022-10-13T18:08:22.496Z,18.17
2022-10-13T18:10:40.790Z,19.30
2022-10-13T18:13:04.647Z,19.98
2022-10-13T18:15:13.393Z,21.52
2022-10-13T18:17:21.890Z,21.83
2022-10-13T18:19:40.508Z,23.20
2022-10-13T18:21:50.462Z,21.23
2022-10-13T18:23:59.827Z,21.35
2022-10-13T18:26:12.110Z,21.58
2022-10-13T18:28:30.657Z,20.35
2022-10-13T18:30:40.085Z,20.05
2022-10-13T18:32:51.067Z,20.60
2022-10-13T18:35:00.489Z,21.55
2022-10-13T18:37:08.692Z,20.67
2022-10-13T18:39:20.450Z,21.48
2022-10-13T18:41:31.820Z,20.25
2022-10-13T18:43:46.285Z,21.05
2022-10-13T18:46:05.112Z,21.38
2022-10-13T18:48:13.490Z,21.10
2022-10-13T18:50:22.020Z,21.70
2022-10-13T18:52:30.345Z,21.13
2022-10-13T18:54:38.590Z,25.73
2022-10-13T18:56:47.519Z,26.35
2022-10-13T18:59:00.095Z,24.05
2022-10-13T19:01:13.359Z,24.23
2022-10-13T19:03:21.446Z,25.77
2022-10-13T19:05:29.718Z,25.23
2022-10-13T19:07:39.143Z,25.90
2022-10-13T19:09:48.043Z,26.40
2022-10-13T19:11:58.573Z,26.38
2022-10-13T19:14:11.505Z,26.38
2022-10-13T19:16:21.916Z,25.20
2022-10-13T19:18:30.592Z,26.10
2022-10-13T19:20:39.215Z,25.20
2022-10-13T19:22:47.496Z,24.73
2022-10-13T19:24:57.147Z,27.50
2022-10-13T19:27:07.758Z,26.42
2022-10-13T19:29:20.103Z,25.85
2022-10-13T19:31:30.757Z,26.33
2022-10-13T19:33:44.744Z,27.38
2022-10-13T19:35:55.557Z,26.05
2022-10-13T19:38:03.767Z,27.70
2022-10-13T19:40:12.482Z,27.27
2022-10-13T19:42:20.992Z,27.98
2022-10-13T19:44:31.966Z,27.45
2022-10-13T19:46:40.341Z,28.08
2022-10-13T19:48:49.257Z,29.45
2022-10-13T19:50:57.313Z,30.05
2022-10-13T19:53:06.046Z,28.95
2022-10-13T19:55:24.224Z,28.40
2022-10-13T19:57:33.410Z,29.30
2022-10-13T19:59:47.647Z,27.50
2022-10-13T20:01:56.819Z,26.70
2022-10-13T20:04:06.412Z,27.55
2022-10-13T20:06:17.301Z,26.42
2022-10-13T20:08:25.778Z,28.35
2022-10-13T20:10:34.387Z,28.95
2022-10-13T20:12:42.714Z,26.35
2022-10-13T20:14:53.901Z,24.48
2022-10-13T20:17:02.433Z,24.00
2022-10-13T20:19:10.962Z,25.35
2022-10-13T20:21:19.360Z,25.33
2022-10-13T20:23:27.476Z,25.38
2022-10-13T20:25:38.888Z,26.25
2022-10-13T20:27:47.609Z,24.17
2022-10-13T20:29:58.285Z,26.63
2022-10-13T20:32:08.085Z,25.60
2022-10-13T20:34:16.800Z,24.40
2022-10-13T20:36:25.153Z,25.08
2022-10-13T20:38:35.679Z,24.38
2022-10-13T20:40:44.009Z,23.50
2022-10-13T20:42:54.944Z,24.50
2022-10-13T20:45:06.125Z,24.52
2022-10-13T20:47:14.189Z,24.05
2022-10-13T20:49:23.495Z,23.52
2022-10-13T20:51:31.768Z,24.30
2022-10-13T20:53:40.994Z,24.45
2022-10-13T20:55:58.529Z,23.75
2022-10-13T20:58:06.498Z,23.58
2022-10-13T21:00:18.282Z,23.77
2022-10-13T21:02:26.274Z,24.63
2022-10-13T21:04:34.620Z,21.75
2022-10-13T21:06:43.747Z,23.27
2022-10-13T21:08:52.007Z,23.73
2022-10-13T21:11:05.433Z,21.35
2022-10-13T21:13:14.179Z,21.20
2022-10-13T21:15:25.198Z,20.08
2022-10-13T21:17:33.815Z,19.50
2022-10-13T21:19:41.993Z,17.95
2022-10-13T21:21:50.254Z,21.58
2022-10-13T21:24:00.352Z,19.50
2022-10-13T21:26:10.456Z,18.33
2022-10-13T21:28:18.983Z,18.10
2022-10-13T21:30:32.429Z,18.55
2022-10-13T21:32:40.651Z,19.63
2022-10-13T21:34:50.751Z,19.15
2022-10-13T21:36:59.980Z,20.45
2022-10-13T21:39:09.413Z,20.92
2022-10-13T21:41:18.719Z,20.17
2022-10-13T21:43:27.065Z,20.27
2022-10-13T21:45:38.079Z,19.98
2022-10-13T21:47:46.307Z,19.63
2022-10-13T21:49:56.722Z,19.95
2022-10-13T21:52:05.271Z,22.65
2022-10-13T21:54:15.597Z,21.95
2022-10-13T21:56:24.624Z,19.70
2022-10-13T21:58:33.198Z,20.45
2022-10-13T22:00:44.375Z,20.02
2022-10-13T22:02:53.011Z,21.05
2022-10-13T22:05:01.672Z,20.92
2022-10-13T22:07:10.324Z,19.55
2022-10-13T22:09:18.928Z,20.50
2022-10-13T22:11:29.776Z,18.45
2022-10-13T22:13:40.251Z,19.35
2022-10-13T22:15:52.640Z,19.77
2022-10-13T22:18:02.035Z,18.73
2022-10-13T22:20:11.403Z,19.38
2022-10-13T22:22:20.084Z,20.58
2022-10-13T22:24:28.532Z,21.02
2022-10-13T22:26:38.493Z,18.42
2022-10-13T22:28:48.388Z,19.98
2022-10-13T22:30:59.877Z,18.25
2022-10-13T22:33:08.432Z,19.45
2022-10-13T22:35:16.697Z,19.42
2022-10-13T22:37:24.861Z,20.42
2022-10-13T22:39:33.617Z,20.25
2022-10-13T22:41:49.513Z,19.10
2022-10-13T22:43:59.200Z,19.58
2022-10-13T22:46:10.345Z,19.67
2022-10-13T22:48:18.769Z,19.25
2022-10-13T22:50:27.272Z,19.92
2022-10-13T22:52:35.703Z,20.45
2022-10-13T22:54:43.910Z,19.50
2022-10-13T22:56:53.578Z,19.48
2022-10-13T22:59:03.463Z,20.50
2022-10-13T23:01:16.760Z,20.13
2022-10-13T23:03:25.068Z,20.15
2022-10-13T23:05:35.354Z,18.77
2022-10-13T23:07:43.456Z,20.15
2022-10-13T23:09:51.725Z,22.27
2022-10-13T23:12:00.147Z,21.35
2022-10-13T23:14:09.417Z,21.40
2022-10-13T23:16:22.062Z,21.52
2022-10-13T23:18:30.426Z,20.02
2022-10-13T23:20:43.149Z,20.55
2022-10-13T23:22:51.322Z,21.83
2022-10-13T23:24:59.549Z,20.90
2022-10-13T23:27:07.996Z,19.98
2022-10-13T23:29:16.312Z,21.38
2022-10-13T23:34:14.943Z,22.98
2022-10-13T23:36:28.073Z,22.92
2022-10-13T23:38:38.648Z,24.25
2022-10-13T23:40:48.098Z,21.17
2022-10-13T23:42:56.185Z,21.25
2022-10-13T23:45:03.997Z,21.80
2022-10-13T23:47:12.085Z,21.23
2022-10-13T23:49:20.103Z,21.23
2022-10-13T23:51:30.732Z,21.52
2022-10-13T23:53:40.878Z,20.40
2022-10-13T23:55:49.104Z,21.27
2022-10-13T23:57:58.579Z,19.92
